createdAt,value
2023-01-13T00:00:49.300Z,100433.66
2023-01-13T00:03:36.184Z,100446.31
2023-01-13T00:06:27.877Z,100443.47
2023-01-13T00:09:14.070Z,100445.84
2023-01-13T00:12:00.654Z,100443.47
2023-01-13T00:14:47.055Z,100451.28
2023-01-13T00:17:33.497Z,100466.31
2023-01-13T00:20:19.855Z,100459.06
2023-01-13T00:23:06.170Z,100458.78
2023-01-13T00:25:57.078Z,100451.00
2023-01-13T00:28:43.440Z,100465.00
2023-01-13T00:31:30.619Z,100463.72
2023-01-13T00:34:17.657Z,100452.81
2023-01-13T00:37:04.369Z,100463.19
2023-01-13T00:39:53.767Z,100446.09
2023-01-13T00:43:15.312Z,100445.28
2023-01-13T00:46:02.781Z,100452.31
2023-01-13T00:48:49.825Z,100450.25
2023-01-13T00:51:36.038Z,100442.69
2023-01-13T00:54:22.497Z,100429.50
2023-01-13T00:57:09.571Z,100438.06
2023-01-13T00:59:55.780Z,100427.94
2023-01-13T01:02:42.249Z,100432.09
2023-01-13T01:05:28.811Z,100427.97
2023-01-13T01:08:14.976Z,100432.63
2023-01-13T01:11:11.785Z,100432.06
2023-01-13T01:14:02.059Z,100425.88
2023-01-13T01:16:48.411Z,100424.06
2023-01-13T01:19:37.486Z,100420.44
2023-01-13T01:22:23.725Z,100411.09
2023-01-13T01:25:10.411Z,100411.38
2023-01-13T01:27:56.843Z,100401.50
2023-01-13T01:30:43.361Z,100402.56
2023-01-13T01:33:29.832Z,100399.94
2023-01-13T01:36:18.962Z,100413.69
2023-01-13T01:39:05.690Z,100405.41
2023-01-13T01:42:09.939Z,100409.78
2023-01-13T01:45:12.064Z,100405.38
2023-01-13T01:48:04.958Z,100396.81
2023-01-13T01:50:52.538Z,100390.34
2023-01-13T01:53:41.765Z,100405.13
2023-01-13T01:56:28.448Z,100402.28
2023-01-13T01:59:16.279Z,100395.78
2023-01-13T02:02:03.203Z,100393.22
2023-01-13T02:04:53.585Z,100396.03
2023-01-13T02:07:43.598Z,100391.13
2023-01-13T02:10:32.189Z,100393.19
2023-01-13T02:13:18.884Z,100379.97
2023-01-13T02:16:15.458Z,100388.19
2023-01-13T02:19:25.985Z,100390.81
2023-01-13T02:22:57.904Z,100392.59
2023-01-13T02:26:08.695Z,100382.75
2023-01-13T02:29:39.515Z,100397.53
2023-01-13T02:32:51.076Z,100375.06
2023-01-13T02:35:42.145Z,100386.97
2023-01-13T02:38:38.306Z,100373.75
2023-01-13T02:42:17.360Z,100381.25
2023-01-13T02:45:17.915Z,100373.47
2023-01-13T02:48:08.970Z,100365.91
2023-01-13T02:51:08.353Z,100368.75
2023-01-13T02:54:08.732Z,100368.50
2023-01-13T02:56:58.162Z,100361.03
2023-01-13T02:59:45.174Z,100378.09
2023-01-13T03:02:31.531Z,100357.41
2023-01-13T03:05:18.194Z,100365.16
2023-01-13T03:08:10.162Z,100363.63
2023-01-13T03:11:09.817Z,100360.00
2023-01-13T03:14:42.038Z,100370.38
2023-01-13T03:18:12.431Z,100351.19
2023-01-13T03:21:27.741Z,100372.97
2023-01-13T03:24:18.228Z,100367.25
2023-01-13T03:27:31.495Z,100353.00
2023-01-13T03:30:51.027Z,100367.75
2023-01-13T03:34:08.045Z,100357.41
2023-01-13T03:36:56.800Z,100374.00
2023-01-13T03:39:50.878Z,100362.84
2023-01-13T03:42:41.679Z,100357.94
2023-01-13T03:45:31.364Z,100351.47
2023-01-13T03:48:20.425Z,100348.59
2023-01-13T03:51:10.561Z,100352.19
2023-01-13T03:54:01.815Z,100362.59
2023-01-13T03:56:54.824Z,100361.50
2023-01-13T03:59:45.683Z,100369.28
2023-01-13T04:02:55.069Z,100363.34
2023-01-13T04:05:47.603Z,100344.41
2023-01-13T04:08:37.020Z,100354.75
2023-01-13T04:11:47.172Z,100352.44
2023-01-13T04:14:35.112Z,100343.59
2023-01-13T04:17:21.793Z,100359.66
2023-01-13T04:20:09.191Z,100366.91
2023-01-13T04:22:55.721Z,100364.31
2023-01-13T04:25:43.621Z,100359.44
2023-01-13T04:28:29.858Z,100365.63
2023-01-13T04:31:16.393Z,100360.97
2023-01-13T04:34:03.107Z,100356.81
2023-01-13T04:36:49.448Z,100369.28
2023-01-13T04:39:36.144Z,100364.84
2023-01-13T04:42:22.641Z,100365.13
2023-01-13T04:45:09.972Z,100364.88
2023-01-13T04:47:56.505Z,100377.03
2023-01-13T04:50:43.012Z,100366.91
2023-01-13T04:53:29.107Z,100359.69
2023-01-13T04:56:15.035Z,100362.72
2023-01-13T04:59:01.542Z,100355.75
2023-01-13T05:01:47.971Z,100357.06
2023-01-13T05:04:34.550Z,100356.81
2023-01-13T05:07:21.029Z,100361.47
2023-01-13T05:10:08.336Z,100372.09
2023-01-13T05:13:12.723Z,100375.97
2023-01-13T05:16:19.750Z,100376.25
2023-01-13T05:19:05.870Z,100367.66
2023-01-13T05:22:10.402Z,100381.91
2023-01-13T05:25:15.412Z,100377.25
2023-01-13T05:28:01.569Z,100370.78
2023-01-13T05:30:52.548Z,100378.56
2023-01-13T05:33:38.573Z,100366.38
2023-01-13T05:36:24.518Z,100365.09
2023-01-13T05:39:10.737Z,100361.69
2023-01-13T05:42:15.293Z,100363.00
2023-01-13T05:45:01.418Z,100358.03
2023-01-13T05:47:47.954Z,100364.53
2023-01-13T05:53:40.882Z,100379.03
2023-01-13T05:56:27.141Z,100372.06
2023-01-13T05:59:13.463Z,100380.88
2023-01-13T06:01:59.976Z,100387.63
2023-01-13T06:04:46.405Z,100387.06
2023-01-13T06:07:32.869Z,100391.97
2023-01-13T06:10:19.212Z,100380.34
2023-01-13T06:13:06.577Z,100392.50
2023-01-13T06:15:58.007Z,100396.63
2023-01-13T06:18:44.471Z,100391.44
2023-01-13T06:21:33.044Z,100370.22
2023-01-13T06:24:19.406Z,100390.16
2023-01-13T06:27:08.214Z,100392.97
2023-01-13T06:29:56.646Z,100392.50
2023-01-13T06:32:50.469Z,100384.16
2023-01-13T06:35:39.461Z,100389.09
2023-01-13T06:38:28.909Z,100393.75
2023-01-13T06:41:15.836Z,100388.28
2023-01-13T06:44:01.801Z,100393.72
2023-01-13T06:46:48.588Z,100383.88
2023-01-13T06:49:35.044Z,100398.63
2023-01-13T06:52:21.867Z,100387.78
2023-01-13T06:55:08.479Z,100389.31
2023-01-13T06:57:57.698Z,100392.41
2023-01-13T07:00:43.898Z,100390.06
2023-01-13T07:03:30.477Z,100384.88
2023-01-13T07:06:16.782Z,100386.88
2023-01-13T07:09:03.142Z,100399.78
2023-01-13T07:11:49.777Z,100391.63
2023-01-13T07:14:55.027Z,100397.28
2023-01-13T07:17:41.026Z,100391.56
2023-01-13T07:20:27.319Z,100407.31
2023-01-13T07:23:13.712Z,100410.72
2023-01-13T07:26:00.239Z,100405.81
2023-01-13T07:28:46.456Z,100412.47
2023-01-13T07:31:32.818Z,100410.34
2023-01-13T10:53:26.273Z,100316.56
2023-01-13T10:56:17.512Z,100319.75
2023-01-13T10:59:30.072Z,100316.00
2023-01-13T11:02:25.860Z,100312.28
2023-01-13T11:05:24.833Z,100310.31
2023-01-13T11:08:18.881Z,100316.63
2023-01-13T11:11:40.388Z,100326.91
2023-01-13T11:14:41.451Z,100317.41
2023-01-13T11:18:08.133Z,100307.91
2023-01-13T11:20:56.588Z,100309.56
2023-01-13T11:23:50.318Z,100319.59
2023-01-13T11:27:02.102Z,100307.00
2023-01-13T11:30:35.665Z,100304.47
2023-01-13T11:33:38.805Z,100301.38
2023-01-13T11:36:33.214Z,100305.94
2023-01-13T11:39:47.624Z,100307.44
2023-01-13T11:43:01.369Z,100310.38
2023-01-13T11:46:06.870Z,100301.22
2023-01-13T11:48:56.279Z,100298.72
2023-01-13T11:52:14.033Z,100305.47
2023-01-13T11:55:35.997Z,100303.34
2023-01-13T11:59:08.391Z,100309.47
2023-01-13T12:02:19.712Z,100315.66
2023-01-13T12:05:13.698Z,100307.13
2023-01-13T12:08:47.260Z,100303.91
2023-01-13T12:12:09.271Z,100305.50
2023-01-13T12:15:13.612Z,100312.63
2023-01-13T12:18:26.793Z,100314.69
2023-01-13T12:21:26.945Z,100310.13
2023-01-13T12:24:27.929Z,100314.53
2023-01-13T12:27:27.979Z,100309.28
2023-01-13T12:30:50.783Z,100309.34
2023-01-13T12:34:01.103Z,100316.72
2023-01-13T12:37:13.465Z,100308.28
2023-01-13T12:40:16.009Z,100306.19
2023-01-13T12:43:43.891Z,100290.59
2023-01-13T12:46:29.949Z,100304.00
2023-01-13T12:49:26.319Z,100304.06
2023-01-13T12:52:18.426Z,100305.63
2023-01-13T12:55:13.874Z,100303.50
2023-01-13T12:58:06.024Z,100302.16
2023-01-13T13:01:11.980Z,100297.53
2023-01-13T13:04:14.091Z,100298.94
2023-01-13T13:07:12.861Z,100306.50
2023-01-13T13:10:06.105Z,100311.59
2023-01-13T13:13:18.076Z,100310.25
2023-01-13T13:16:26.550Z,100312.84
2023-01-13T13:19:18.907Z,100313.88
2023-01-13T13:22:14.590Z,100317.66
2023-01-13T13:25:04.064Z,100313.81
2023-01-13T13:28:18.367Z,100312.06
2023-01-13T13:31:35.267Z,100315.25
2023-01-13T13:34:30.502Z,100314.88
2023-01-13T13:37:58.979Z,100315.94
2023-01-13T13:41:05.500Z,100318.25
2023-01-13T13:44:10.592Z,100313.31
2023-01-13T13:47:01.895Z,100317.19
2023-01-13T13:49:53.805Z,100317.69
2023-01-13T13:53:02.280Z,100315.66
2023-01-13T13:56:01.714Z,100316.22
2023-01-13T13:58:49.444Z,100310.94
2023-01-13T14:01:39.015Z,100310.94
2023-01-13T14:04:30.060Z,100314.59
2023-01-13T14:07:22.514Z,100308.06
2023-01-13T14:10:28.561Z,100306.66
2023-01-13T14:13:22.238Z,100315.03
2023-01-13T14:16:14.946Z,100306.47
2023-01-13T14:19:01.220Z,100300.81
2023-01-13T14:21:48.466Z,100299.34
2023-01-13T14:24:45.741Z,100300.69
2023-01-13T14:27:31.750Z,100304.06
2023-01-13T14:30:19.509Z,100309.47
2023-01-13T14:33:06.491Z,100301.66
2023-01-13T14:36:18.586Z,100308.72
2023-01-13T14:39:04.769Z,100303.50
2023-01-13T14:41:51.110Z,100301.19
2023-01-13T14:44:37.579Z,100295.22
2023-01-13T14:47:29.011Z,100296.19
2023-01-13T14:50:28.012Z,100295.69
2023-01-13T14:53:46.263Z,100294.06
2023-01-13T14:56:53.672Z,100300.81
2023-01-13T15:00:11.962Z,100303.72
2023-01-13T15:02:58.222Z,100301.88
2023-01-13T15:05:52.957Z,100295.34
2023-01-13T15:08:40.518Z,100299.19
2023-01-13T15:11:28.974Z,100296.03
2023-01-13T15:14:23.349Z,100294.78
2023-01-13T15:17:16.783Z,100292.94
2023-01-13T15:20:03.507Z,100296.03
2023-01-13T15:22:51.969Z,100295.81
2023-01-13T15:25:43.201Z,100285.97
2023-01-13T15:28:32.175Z,100275.28
2023-01-13T15:31:19.765Z,100283.66
2023-01-13T15:34:05.895Z,100275.84
2023-01-13T15:36:52.309Z,100281.25
2023-01-13T15:39:38.873Z,100285.22
2023-01-13T15:42:43.162Z,100290.69
2023-01-13T15:45:49.742Z,100285.97
2023-01-13T15:48:36.440Z,100284.44
2023-01-13T15:51:23.209Z,100285.84
2023-01-13T15:54:09.784Z,100284.22
2023-01-13T15:56:56.548Z,100287.59
2023-01-13T15:59:42.646Z,100283.16
2023-01-13T16:02:30.945Z,100281.63
2023-01-13T19:29:09.960Z,100282.06
2023-01-13T19:31:57.151Z,100276.66
2023-01-13T19:34:44.667Z,100276.88
2023-01-13T19:37:31.544Z,100286.78
2023-01-13T19:40:17.995Z,100277.91
2023-01-13T19:43:22.789Z,100275.53
2023-01-13T19:46:09.919Z,100268.84
2023-01-13T19:48:56.344Z,100271.94
2023-01-13T19:51:42.383Z,100281.78
2023-01-13T19:54:28.671Z,100272.94
2023-01-13T19:57:15.730Z,100273.84
2023-01-13T20:00:02.796Z,100271.38
2023-01-13T20:03:03.296Z,100269.56
2023-01-13T20:05:53.571Z,100271.88
2023-01-13T20:08:40.228Z,100270.34
2023-01-13T20:11:31.408Z,100267.03
2023-01-13T20:14:17.409Z,100270.41
2023-01-13T20:17:03.864Z,100271.94
2023-01-13T20:19:50.157Z,100271.25
2023-01-13T20:22:40.731Z,100273.50
2023-01-13T20:25:28.966Z,100273.56
2023-01-13T20:28:15.214Z,100267.09
2023-01-13T20:31:05.852Z,100278.75
2023-01-13T20:33:52.114Z,100282.41
2023-01-13T20:36:39.046Z,100280.09
2023-01-13T20:39:26.640Z,100279.81
2023-01-13T20:42:31.959Z,100273.56
2023-01-13T20:45:20.849Z,100273.84
2023-01-13T20:48:07.356Z,100282.34
2023-01-13T20:50:55.151Z,100278.03
2023-01-13T20:53:41.605Z,100281.38
2023-01-13T20:56:28.150Z,100288.09
2023-01-13T20:59:14.096Z,100286.00
2023-01-13T21:02:00.575Z,100287.88
2023-01-13T21:04:46.961Z,100288.66
2023-01-13T21:07:33.408Z,100285.00
2023-01-13T21:10:19.883Z,100286.78
2023-01-13T21:13:24.586Z,100283.47
2023-01-13T21:16:10.776Z,100287.13
2023-01-13T21:19:10.582Z,100281.41
2023-01-13T21:21:57.210Z,100274.44
2023-01-13T21:24:43.525Z,100279.56
2023-01-13T21:27:31.214Z,100279.56
2023-01-13T21:30:18.046Z,100280.34
2023-01-13T21:33:06.253Z,100281.06
2023-01-13T21:35:52.537Z,100279.25
2023-01-13T21:38:38.867Z,100281.16
2023-01-13T21:41:44.871Z,100266.03
2023-01-13T21:44:49.368Z,100267.03
2023-01-13T21:47:50.565Z,100269.91
2023-01-13T21:50:38.166Z,100263.44
2023-01-13T21:53:24.709Z,100283.97
2023-01-13T21:56:10.853Z,100288.31
2023-01-13T21:58:57.445Z,100275.38
2023-01-13T22:02:23.213Z,100271.72
2023-01-13T22:04:49.719Z,100279.81
2023-01-13T22:07:38.370Z,100283.13
2023-01-13T22:10:29.757Z,100273.56
2023-01-13T22:13:34.434Z,100284.19
2023-01-13T22:16:20.994Z,100280.31
2023-01-13T22:19:09.614Z,100281.63
2023-01-13T22:21:55.680Z,100276.38
2023-01-13T22:24:43.643Z,100280.09
2023-01-13T22:27:30.888Z,100276.16
2023-01-13T22:30:21.719Z,100273.00
2023-01-13T22:33:07.969Z,100265.75
2023-01-13T22:35:56.039Z,100269.13
2023-01-13T22:38:42.508Z,100258.25
2023-01-13T22:41:28.975Z,100260.59
2023-01-13T22:44:15.437Z,100268.34
2023-01-13T22:47:01.761Z,100265.19
2023-01-13T22:49:48.221Z,100255.38
2023-01-13T22:52:35.651Z,100265.47
2023-01-13T22:55:21.807Z,100261.63
2023-01-13T22:58:08.131Z,100262.09
2023-01-13T23:00:55.830Z,100265.75
2023-01-13T23:03:45.268Z,100260.00
2023-01-13T23:06:34.052Z,100259.78
2023-01-13T23:09:20.753Z,100260.00
2023-01-13T23:12:06.958Z,100252.41
2023-01-13T23:14:53.039Z,100257.97
2023-01-13T23:17:39.017Z,100263.66
2023-01-13T23:20:25.394Z,100260.84
2023-01-13T23:23:11.888Z,100259.06
2023-01-13T23:25:58.253Z,100269.13
2023-01-13T23:28:44.608Z,100249.22
2023-01-13T23:31:30.940Z,100252.03
2023-01-13T23:34:17.257Z,100248.63
2023-01-13T23:37:04.110Z,100245.28
2023-01-13T23:39:51.061Z,100248.38
2023-01-13T23:42:37.408Z,100245.28
2023-01-13T23:45:24.035Z,100246.22
2023-01-13T23:48:10.490Z,100242.16
2023-01-13T23:50:59.038Z,100235.38
2023-01-13T23:53:47.245Z,100245.75
2023-01-13T23:56:34.955Z,100236.44
2023-01-13T23:59:21.472Z,100233.03
